createdAt,value
2018-12-29T06:43:40.220Z,23.50
2018-12-29T06:44:43.234Z,21.25
2018-12-29T06:45:46.680Z,20.75
2018-12-29T06:46:49.653Z,24.00
2018-12-29T06:47:52.573Z,19.75
2018-12-29T06:48:56.383Z,18.25
2018-12-29T06:49:59.324Z,24.00
2018-12-29T06:51:02.391Z,20.00
2018-12-29T06:52:05.296Z,20.00
2018-12-29T06:53:08.196Z,23.50
2018-12-29T06:54:11.152Z,18.00
2018-12-29T06:55:14.585Z,20.50
2018-12-29T06:56:17.589Z,16.00
2018-12-29T06:57:20.498Z,18.50
2018-12-29T06:58:23.445Z,16.50
2018-12-29T06:59:26.409Z,19.00
2018-12-29T07:00:29.410Z,18.50
2018-12-29T07:01:33.140Z,20.50
2018-12-29T07:02:36.053Z,19.00
2018-12-29T07:03:39.147Z,21.50
2018-12-29T07:04:42.060Z,18.00
2018-12-29T07:05:44.967Z,18.00
2018-12-29T07:06:47.876Z,14.50
2018-12-29T07:07:51.257Z,18.50
2018-12-29T07:08:54.229Z,15.50
2018-12-29T07:09:57.173Z,19.00
2018-12-29T07:11:02.253Z,21.00
2018-12-29T07:12:05.298Z,16.00
2018-12-29T07:13:08.224Z,16.50
2018-12-29T07:14:14.092Z,16.00
2018-12-29T07:15:17.133Z,17.00
2018-12-29T07:16:20.077Z,18.50
2018-12-29T07:17:25.536Z,21.50
2018-12-29T07:18:28.505Z,17.00
2018-12-29T07:19:33.077Z,19.00
2018-12-29T07:20:39.725Z,16.50
2018-12-29T07:21:42.664Z,21.50
2018-12-29T07:22:45.601Z,16.50
2018-12-29T07:23:48.621Z,19.50
2018-12-29T07:24:54.639Z,20.00
2018-12-29T07:26:02.648Z,21.00
2018-12-29T07:27:05.977Z,16.50
2018-12-29T07:28:08.908Z,22.00
2018-12-29T07:29:11.958Z,25.00
2018-12-29T07:30:14.875Z,17.00
2018-12-29T07:31:18.246Z,15.50
2018-12-29T07:32:23.384Z,19.50
2018-12-29T07:33:26.752Z,20.00
2018-12-29T07:34:29.807Z,19.00
2018-12-29T07:35:32.732Z,17.50
2018-12-29T07:36:36.236Z,20.00
2018-12-29T07:37:39.202Z,17.50
2018-12-29T07:38:42.109Z,20.50
2018-12-29T07:39:47.827Z,21.00
2018-12-29T07:40:50.753Z,17.50
2018-12-29T07:41:56.123Z,21.50
2018-12-29T07:42:59.477Z,20.00
2018-12-29T07:44:02.444Z,16.50
2018-12-29T07:45:09.882Z,16.00
2018-12-29T07:46:12.857Z,17.50
2018-12-29T07:47:18.639Z,25.00
2018-12-29T07:48:27.606Z,20.00
2018-12-29T07:49:30.588Z,16.50
2018-12-29T07:50:33.643Z,21.50
2018-12-29T07:51:38.590Z,19.50
2018-12-29T07:52:41.927Z,20.50
2018-12-29T07:53:44.834Z,18.50
2018-12-29T07:54:47.780Z,22.00
2018-12-29T07:55:52.905Z,20.00
2018-12-29T07:56:55.935Z,18.50
2018-12-29T07:57:59.275Z,16.00
2018-12-29T07:59:02.597Z,17.50
2018-12-29T08:00:05.600Z,18.00
2018-12-29T08:01:08.529Z,14.50
2018-12-29T08:02:11.532Z,20.50
2018-12-29T08:03:14.496Z,19.00
2018-12-29T08:04:20.583Z,17.50
2018-12-29T08:05:23.548Z,18.00
2018-12-29T08:06:26.947Z,16.50
2018-12-29T08:07:32.900Z,16.00
2018-12-29T08:08:35.848Z,18.50
2018-12-29T08:09:38.808Z,18.00
2018-12-29T08:10:42.153Z,18.00
2018-12-29T08:11:45.087Z,17.50
2018-12-29T08:12:48.559Z,19.50
2018-12-29T08:13:54.730Z,16.50
2018-12-29T08:14:57.648Z,17.50
2018-12-29T08:16:00.624Z,16.50
2018-12-29T08:17:07.027Z,23.00
2018-12-29T08:18:17.176Z,20.00
2018-12-29T08:19:20.164Z,20.50
2018-12-29T08:20:25.786Z,21.50
2018-12-29T08:21:31.051Z,22.00
2018-12-29T08:22:35.415Z,20.00
2018-12-29T08:23:38.677Z,21.00
2018-12-29T08:24:41.704Z,17.00
2018-12-29T08:25:44.663Z,20.00
2018-12-29T08:26:48.888Z,21.00
2018-12-29T08:27:51.836Z,20.00
2018-12-29T08:28:54.814Z,17.50
2018-12-29T08:29:58.256Z,17.00
2018-12-29T08:31:01.195Z,21.00
2018-12-29T08:32:16.444Z,18.50
2018-12-29T08:33:20.612Z,15.00
2018-12-29T08:34:23.976Z,21.00
2018-12-29T08:35:26.998Z,18.50
2018-12-29T08:36:30.439Z,19.50
2018-12-29T08:37:33.371Z,20.50
2018-12-29T08:38:36.313Z,19.50
2018-12-29T08:39:42.432Z,22.50
2018-12-29T08:40:45.421Z,25.50
2018-12-29T08:41:48.420Z,22.50
2018-12-29T08:42:51.419Z,24.00
2018-12-29T08:43:54.842Z,20.50
2018-12-29T08:44:57.936Z,24.50
2018-12-29T08:46:00.910Z,25.50
2018-12-29T08:47:04.898Z,20.00
2018-12-29T08:48:08.385Z,22.00
2018-12-29T08:49:11.328Z,20.50
2018-12-29T08:50:14.863Z,21.00
2018-12-29T08:51:17.770Z,21.00
2018-12-29T08:52:20.701Z,20.00
2018-12-29T08:53:25.986Z,22.00
2018-12-29T08:54:29.230Z,18.50
2018-12-29T08:55:35.119Z,23.00
2018-12-29T08:56:38.043Z,18.50
2018-12-29T08:57:43.131Z,20.00
2018-12-29T08:58:47.718Z,20.50
2018-12-29T08:59:51.093Z,16.00
2018-12-29T09:00:56.300Z,22.00
2018-12-29T09:01:59.367Z,20.00
2018-12-29T09:03:02.483Z,21.50
2018-12-29T09:04:07.409Z,20.50
2018-12-29T09:05:13.514Z,22.50
2018-12-29T09:06:30.480Z,21.00
2018-12-29T09:07:33.407Z,18.00
2018-12-29T09:08:49.063Z,18.50
2018-12-29T09:09:48.124Z,25.00
2018-12-29T09:10:54.397Z,20.00
2018-12-29T09:11:58.998Z,20.00
2018-12-29T09:13:03.920Z,19.50
2018-12-29T09:14:08.289Z,20.50
2018-12-29T09:15:14.670Z,23.00
2018-12-29T09:16:16.913Z,21.00
2018-12-29T09:17:20.047Z,18.00
2018-12-29T09:18:57.036Z,15.50
2018-12-29T09:20:02.344Z,20.50
2018-12-29T09:21:05.371Z,23.00
2018-12-29T09:22:08.287Z,22.00
2018-12-29T09:23:11.253Z,22.00
2018-12-29T09:24:14.208Z,20.00
2018-12-29T09:25:17.681Z,18.00
2018-12-29T09:26:21.776Z,19.50
2018-12-29T09:27:25.246Z,19.50
2018-12-29T09:28:28.175Z,21.50
2018-12-29T09:29:31.105Z,19.50
2018-12-29T09:30:34.033Z,20.50
2018-12-29T09:31:37.485Z,19.00
2018-12-29T09:32:40.554Z,25.00
2018-12-29T09:33:43.495Z,20.50
2018-12-29T09:34:46.994Z,20.00
2018-12-29T09:35:50.686Z,22.50
2018-12-29T09:36:54.097Z,22.00
2018-12-29T09:37:57.410Z,20.00
2018-12-29T09:39:00.860Z,19.00
2018-12-29T09:40:04.690Z,18.00
2018-12-29T09:41:07.700Z,22.00
2018-12-29T09:42:10.645Z,26.00
2018-12-29T09:43:13.646Z,22.00
2018-12-29T09:44:18.138Z,23.00
2018-12-29T09:45:21.221Z,21.00
2018-12-29T09:46:24.622Z,19.00
2018-12-29T09:47:27.630Z,21.00
2018-12-29T09:48:30.704Z,19.00
2018-12-29T09:49:33.710Z,19.50
2018-12-29T09:50:36.933Z,18.50
2018-12-29T09:51:39.924Z,21.00
2018-12-29T09:52:42.974Z,16.50
2018-12-29T09:53:45.903Z,21.50
2018-12-29T09:54:49.395Z,23.50
2018-12-29T09:55:52.408Z,19.00
2018-12-29T09:56:55.846Z,20.00
2018-12-29T09:57:58.909Z,16.00
2018-12-29T09:59:03.162Z,19.50
2018-12-29T10:00:06.318Z,18.00
2018-12-29T10:01:09.390Z,22.50
2018-12-29T10:02:12.874Z,22.00
2018-12-29T10:03:16.218Z,22.50
2018-12-29T10:04:19.586Z,20.50
2018-12-29T10:05:22.971Z,20.50
2018-12-29T10:06:26.377Z,16.00
2018-12-29T10:07:29.297Z,22.50
2018-12-29T10:08:32.390Z,22.00
2018-12-29T10:09:35.702Z,18.50
2018-12-29T10:10:38.660Z,20.50
2018-12-29T10:11:41.658Z,25.50
2018-12-29T10:12:44.670Z,23.50
2018-12-29T10:13:47.570Z,22.00
2018-12-29T10:14:52.299Z,21.00
2018-12-29T10:15:55.804Z,22.00
2018-12-29T10:16:58.798Z,21.50
2018-12-29T10:18:02.141Z,21.00
2018-12-29T10:19:05.147Z,21.50
2018-12-29T10:20:08.191Z,16.00
2018-12-29T10:21:11.582Z,19.50
2018-12-29T10:22:15.150Z,21.50
2018-12-29T10:23:18.086Z,23.50
2018-12-29T10:24:21.187Z,20.50
2018-12-29T10:25:26.523Z,24.50
2018-12-29T10:26:29.535Z,25.00
2018-12-29T10:27:32.896Z,22.50
2018-12-29T10:28:36.170Z,23.50
2018-12-29T10:29:42.188Z,24.50
2018-12-29T10:30:45.705Z,26.50
2018-12-29T10:31:48.834Z,23.00
2018-12-29T10:32:51.867Z,23.00
2018-12-29T10:33:55.396Z,24.50
2018-12-29T10:34:58.748Z,23.50
2018-12-29T10:36:01.666Z,20.00
2018-12-29T10:37:06.094Z,20.00
2018-12-29T10:38:09.001Z,20.00
2018-12-29T10:39:11.954Z,23.50
2018-12-29T10:40:15.156Z,23.00
2018-12-29T10:41:18.115Z,20.50
2018-12-29T10:42:21.138Z,21.00
2018-12-29T10:43:24.509Z,20.00
2018-12-29T10:44:27.502Z,21.00
2018-12-29T10:45:33.385Z,22.00
2018-12-29T10:46:36.324Z,23.50
2018-12-29T10:47:39.556Z,22.50
2018-12-29T10:48:42.648Z,20.00
2018-12-29T10:49:45.664Z,22.50
2018-12-29T10:50:51.063Z,22.00
2018-12-29T10:51:54.059Z,23.50
2018-12-29T10:52:59.635Z,23.00
2018-12-29T10:54:05.809Z,23.00
2018-12-29T10:55:10.374Z,24.00
2018-12-29T10:56:13.491Z,24.50
2018-12-29T10:57:16.453Z,28.00
2018-12-29T10:58:19.967Z,27.50
2018-12-29T10:59:22.955Z,22.50
2018-12-29T11:00:26.433Z,23.50
2018-12-29T11:01:29.620Z,22.00
2018-12-29T11:02:33.106Z,22.00
2018-12-29T11:03:38.616Z,21.50
2018-12-29T11:04:42.008Z,24.00
2018-12-29T11:05:45.433Z,25.50
2018-12-29T11:06:49.575Z,20.50
2018-12-29T11:07:52.551Z,22.00
2018-12-29T11:08:58.581Z,23.25
2018-12-29T11:10:02.655Z,23.00
2018-12-29T11:11:05.687Z,19.50
2018-12-29T11:12:08.998Z,18.00
2018-12-29T11:13:12.685Z,21.50
2018-12-29T11:14:15.696Z,20.00
2018-12-29T11:15:18.585Z,19.50
2018-12-29T11:16:21.577Z,19.50
2018-12-29T11:17:24.635Z,20.50
2018-12-29T11:18:28.084Z,19.00
2018-12-29T11:19:31.023Z,18.25
2018-12-29T11:20:33.888Z,18.25
2018-12-29T11:21:36.953Z,18.25
2018-12-29T11:22:40.531Z,24.25
2018-12-29T11:23:43.471Z,20.25
2018-12-29T11:24:47.658Z,18.00
2018-12-29T11:25:51.011Z,19.50
2018-12-29T11:26:54.007Z,18.75
2018-12-29T11:27:56.928Z,21.75
2018-12-29T11:29:00.131Z,17.75
2018-12-29T11:42:52.385Z,25.50
2018-12-29T11:43:55.362Z,22.50
2018-12-29T11:44:58.264Z,21.00
2018-12-29T11:46:01.241Z,20.00
2018-12-29T11:47:06.740Z,20.00
2018-12-29T11:48:12.759Z,22.00
2018-12-29T11:49:18.126Z,20.75
2018-12-29T11:50:20.407Z,20.75
2018-12-29T11:51:25.446Z,17.50
2018-12-29T11:52:28.407Z,19.50
2018-12-29T11:53:31.343Z,21.25
2018-12-29T11:54:34.896Z,21.50
2018-12-29T11:55:37.831Z,18.50
2018-12-29T11:56:43.764Z,18.50
2018-12-29T11:57:46.695Z,16.00
2018-12-29T11:58:50.407Z,14.00
2018-12-29T11:59:53.411Z,16.50
2018-12-29T12:00:56.705Z,14.50
2018-12-29T12:01:59.643Z,16.00
2018-12-29T12:03:04.163Z,13.50
2018-12-29T12:04:09.697Z,15.00
2018-12-29T12:05:19.633Z,16.00
2018-12-29T12:06:27.333Z,17.25
2018-12-29T12:07:30.379Z,17.75
2018-12-29T12:08:33.330Z,15.75
2018-12-29T12:09:36.742Z,19.75
2018-12-29T12:10:42.259Z,17.75
2018-12-29T12:11:45.314Z,17.75
2018-12-29T12:12:48.855Z,15.25
2018-12-29T12:13:51.808Z,14.25
2018-12-29T12:14:54.765Z,15.75
2018-12-29T12:15:59.877Z,15.75
2018-12-29T12:17:02.811Z,15.75
2018-12-29T12:18:08.981Z,19.75
2018-12-29T12:19:12.543Z,14.00
2018-12-29T12:20:15.587Z,13.00
2018-12-29T12:21:19.108Z,14.00
2018-12-29T12:22:22.183Z,16.50
2018-12-29T12:23:27.375Z,16.75
2018-12-29T12:24:30.496Z,15.75
2018-12-29T12:25:33.943Z,16.00
2018-12-29T12:26:37.830Z,14.00
2018-12-29T12:27:42.193Z,16.50
2018-12-29T12:28:47.784Z,20.00
2018-12-29T12:29:53.274Z,15.50
2018-12-29T12:30:56.341Z,14.50
2018-12-29T12:32:03.158Z,16.00
2018-12-29T12:33:06.058Z,19.50
2018-12-29T12:34:09.486Z,20.00
2018-12-29T12:35:13.124Z,16.00
2018-12-29T12:36:16.086Z,16.00
2018-12-29T12:37:21.373Z,19.00
2018-12-29T12:38:25.206Z,17.50
2018-12-29T12:39:31.340Z,15.50
2018-12-29T12:40:35.327Z,16.00
2018-12-29T12:41:39.066Z,14.00
2018-12-29T12:42:44.170Z,13.50
2018-12-29T12:43:53.129Z,12.00
2018-12-29T12:44:56.178Z,15.50
2018-12-29T12:46:03.480Z,8.00
2018-12-29T12:47:06.673Z,15.00
2018-12-29T12:48:12.054Z,10.00
2018-12-29T12:49:14.752Z,12.00
2018-12-29T12:50:18.062Z,14.00
2018-12-29T12:51:26.546Z,14.00
2018-12-29T12:52:30.007Z,13.00
2018-12-29T12:53:33.013Z,14.00
2018-12-29T12:54:35.936Z,13.50
2018-12-29T12:55:39.155Z,13.50
2018-12-29T12:56:42.906Z,13.00
2018-12-29T12:57:49.839Z,12.00
2018-12-29T12:58:55.984Z,15.50
2018-12-29T12:59:59.290Z,14.00
2018-12-29T13:01:02.496Z,15.00
2018-12-29T13:02:05.877Z,13.50
2018-12-29T13:03:09.303Z,14.00
2018-12-29T13:04:12.914Z,13.50
2018-12-29T13:05:15.927Z,14.50
2018-12-29T13:06:18.916Z,11.50
2018-12-29T13:07:23.370Z,17.00
2018-12-29T13:08:26.475Z,16.00
2018-12-29T13:09:36.064Z,15.50
2018-12-29T13:10:39.122Z,15.50
2018-12-29T13:11:42.222Z,11.00
2018-12-29T13:12:46.963Z,12.50
2018-12-29T13:13:52.703Z,12.00
2018-12-29T13:14:56.187Z,15.00
2018-12-29T13:16:00.682Z,19.50
2018-12-29T13:17:03.660Z,13.00
2018-12-29T13:18:12.953Z,17.50
2018-12-29T13:19:13.743Z,12.50
2018-12-29T13:20:16.718Z,14.50
2018-12-29T13:21:20.159Z,15.50
2018-12-29T13:22:26.809Z,14.50
2018-12-29T13:23:30.314Z,14.00
2018-12-29T13:24:33.381Z,12.50
2018-12-29T13:25:37.745Z,13.00
2018-12-29T13:26:40.790Z,16.00
2018-12-29T13:27:46.322Z,13.50
2018-12-29T13:28:53.679Z,14.00
2018-12-29T13:29:56.733Z,16.50
2018-12-29T13:30:59.832Z,11.00
2018-12-29T13:32:02.814Z,14.00
2018-12-29T13:33:05.945Z,14.00
2018-12-29T13:34:09.495Z,14.50
2018-12-29T13:35:15.453Z,17.00
2018-12-29T13:36:18.547Z,15.00
2018-12-29T13:37:21.463Z,15.50
2018-12-29T13:38:24.821Z,14.50
2018-12-29T13:39:30.456Z,14.50
2018-12-29T13:40:33.777Z,13.50
2018-12-29T13:41:37.116Z,16.00
2018-12-29T13:42:40.359Z,15.00
2018-12-29T13:43:43.304Z,18.00
2018-12-29T13:44:49.098Z,17.50
2018-12-29T13:45:52.379Z,17.50
2018-12-29T13:46:55.539Z,13.50
2018-12-29T13:47:58.761Z,15.50
2018-12-29T13:49:01.652Z,15.50
2018-12-29T13:50:08.826Z,15.00
2018-12-29T13:51:11.723Z,16.00
2018-12-29T13:52:17.272Z,19.50
2018-12-29T13:53:22.003Z,19.50
2018-12-29T13:54:25.286Z,19.00
2018-12-29T13:55:28.590Z,15.50
2018-12-29T13:56:31.752Z,15.50
2018-12-29T13:57:37.178Z,17.00
2018-12-29T13:58:40.241Z,18.50
2018-12-29T13:59:43.207Z,16.50
2018-12-29T14:00:46.486Z,13.50
2018-12-29T14:01:51.230Z,14.75
2018-12-29T14:02:56.349Z,16.00
2018-12-29T14:04:01.260Z,16.25
2018-12-29T14:05:05.154Z,15.25
2018-12-29T14:06:08.239Z,14.50
2018-12-29T14:07:12.134Z,15.25
2018-12-29T14:08:15.186Z,17.75
2018-12-29T14:09:18.127Z,18.00
2018-12-29T14:10:21.563Z,15.75
2018-12-29T14:11:26.120Z,16.25
2018-12-29T14:12:29.044Z,20.50
2018-12-29T14:13:35.630Z,18.75
2018-12-29T14:14:45.340Z,18.00
2018-12-29T14:15:48.374Z,17.50
2018-12-29T14:16:51.384Z,14.50
2018-12-29T14:17:54.326Z,17.50
2018-12-29T14:19:00.468Z,15.50
2018-12-29T14:20:04.962Z,16.00
2018-12-29T14:21:07.976Z,17.00
2018-12-29T14:22:21.452Z,16.00
2018-12-29T14:23:20.964Z,16.00
2018-12-29T14:24:26.117Z,18.00
2018-12-29T14:25:28.792Z,14.00
2018-12-29T14:26:32.424Z,14.50
2018-12-29T14:27:36.289Z,14.50
2018-12-29T14:28:39.314Z,14.00
2018-12-29T14:29:42.398Z,14.00
2018-12-29T14:30:45.467Z,13.50
2018-12-29T14:31:49.702Z,12.50
2018-12-29T14:32:56.562Z,17.00
2018-12-29T14:33:59.561Z,11.00
2018-12-29T14:35:02.583Z,15.50
2018-12-29T14:36:05.506Z,15.00
2018-12-29T14:37:08.564Z,17.00
2018-12-29T14:38:11.665Z,16.00
2018-12-29T14:39:18.235Z,18.00
2018-12-29T14:40:21.328Z,16.00
2018-12-29T14:41:24.871Z,14.50
2018-12-29T14:42:32.934Z,12.50
2018-12-29T14:43:35.913Z,12.00
2018-12-29T14:44:38.921Z,17.00
2018-12-29T14:45:44.328Z,16.00
2018-12-29T14:46:47.304Z,15.50
2018-12-29T14:47:52.705Z,17.50
2018-12-29T14:48:55.906Z,14.50
2018-12-29T14:49:59.394Z,15.00
2018-12-29T14:51:03.922Z,15.00
2018-12-29T14:52:06.825Z,16.00
2018-12-29T14:53:09.790Z,12.50
2018-12-29T14:54:15.322Z,16.00
2018-12-29T14:55:18.514Z,15.00
2018-12-29T14:56:21.443Z,17.00
2018-12-29T14:57:30.181Z,17.00
2018-12-29T14:58:37.197Z,18.50
2018-12-29T14:59:37.987Z,15.00
2018-12-29T15:00:49.062Z,14.50
2018-12-29T15:01:51.660Z,14.00
2018-12-29T15:02:54.585Z,14.50
2018-12-29T15:04:00.634Z,15.25
2018-12-29T15:05:03.816Z,18.00
2018-12-29T15:06:06.813Z,16.25
2018-12-29T15:07:09.852Z,14.25
2018-12-29T15:08:12.809Z,16.00
2018-12-29T15:09:15.844Z,14.50
2018-12-29T15:10:22.240Z,14.00
2018-12-29T15:11:30.294Z,11.00
2018-12-29T15:12:34.303Z,15.50
2018-12-29T15:13:37.979Z,15.50
2018-12-29T15:14:41.337Z,17.50
2018-12-29T15:15:44.343Z,17.00
2018-12-29T15:16:47.756Z,18.00
2018-12-29T15:17:50.733Z,17.50
2018-12-29T15:18:57.108Z,19.50
2018-12-29T15:20:00.253Z,12.00
2018-12-29T15:21:03.284Z,15.00
2018-12-29T15:22:06.354Z,13.50
2018-12-29T15:23:10.119Z,12.50
2018-12-29T15:24:16.173Z,17.50
2018-12-29T15:25:19.284Z,14.00
2018-12-29T15:26:24.089Z,19.00
2018-12-29T15:27:29.911Z,17.00
2018-12-29T15:28:35.873Z,13.00
2018-12-29T15:29:39.203Z,14.50
2018-12-29T15:30:45.104Z,16.00
2018-12-29T15:31:52.944Z,16.50
2018-12-29T15:32:57.267Z,15.50
2018-12-29T15:34:02.650Z,15.50
2018-12-29T15:35:05.904Z,18.00
2018-12-29T15:36:15.867Z,16.75
2018-12-29T15:37:13.525Z,14.50
2018-12-29T15:38:16.449Z,17.50
2018-12-29T15:39:22.577Z,16.00
2018-12-29T15:40:25.609Z,13.00
2018-12-29T15:41:31.562Z,16.00
2018-12-29T15:42:35.601Z,16.00
2018-12-29T15:43:42.849Z,17.00
2018-12-29T15:44:46.441Z,20.00
2018-12-29T15:45:52.181Z,16.00
2018-12-29T15:46:58.970Z,17.00
2018-12-29T15:48:08.234Z,16.50
2018-12-29T15:49:11.263Z,16.00
2018-12-29T15:50:18.328Z,15.50
2018-12-29T15:51:21.675Z,15.00
2018-12-29T15:52:25.081Z,17.00
2018-12-29T15:53:31.071Z,18.00
2018-12-29T15:54:34.569Z,17.50
2018-12-29T15:55:37.563Z,16.00
2018-12-29T15:56:41.408Z,16.25
2018-12-29T15:57:44.402Z,15.75
2018-12-29T15:58:47.319Z,16.25
2018-12-29T15:59:50.875Z,15.25
2018-12-29T16:00:53.808Z,13.75
2018-12-29T16:01:56.806Z,14.25
2018-12-29T16:02:59.881Z,16.25
2018-12-29T16:04:11.545Z,12.25
2018-12-29T16:05:14.469Z,15.50
2018-12-29T16:06:18.761Z,14.00
2018-12-29T16:07:21.698Z,14.00
2018-12-29T16:08:29.948Z,17.75
2018-12-29T16:09:33.412Z,15.75
2018-12-29T16:10:36.419Z,19.25
2018-12-29T16:11:39.816Z,15.75
2018-12-29T16:12:43.316Z,15.75
2018-12-29T16:13:46.573Z,13.75
2018-12-29T16:14:49.537Z,15.75
2018-12-29T16:15:52.565Z,14.25
2018-12-29T16:16:55.899Z,12.25
2018-12-29T16:17:58.840Z,14.75
2018-12-29T16:19:02.242Z,15.00
2018-12-29T16:20:07.618Z,16.50
2018-12-29T16:21:10.577Z,16.00
2018-12-29T16:22:13.680Z,15.75
2018-12-29T16:23:17.069Z,14.00
2018-12-29T16:24:23.176Z,16.00
2018-12-29T16:25:26.461Z,14.00
2018-12-29T16:26:29.458Z,14.50
2018-12-29T16:27:33.918Z,15.00
2018-12-29T16:28:37.485Z,12.50
2018-12-29T16:29:40.799Z,17.50
2018-12-29T16:30:46.194Z,14.00
2018-12-29T16:31:52.186Z,14.50
2018-12-29T16:32:55.192Z,12.50
2018-12-29T16:33:59.290Z,16.50
2018-12-29T16:35:02.977Z,17.00
2018-12-29T16:36:06.465Z,10.50
2018-12-29T16:37:09.372Z,16.00
2018-12-29T16:38:13.237Z,15.00
2018-12-29T16:39:16.315Z,13.50
2018-12-29T16:40:19.221Z,17.00
2018-12-29T16:41:22.245Z,16.00
2018-12-29T16:42:25.606Z,15.00
2018-12-29T16:43:28.539Z,17.00
2018-12-29T16:44:33.670Z,15.00
2018-12-29T16:45:36.652Z,18.00
2018-12-29T16:46:40.656Z,18.00
2018-12-29T16:47:45.307Z,16.00
2018-12-29T16:48:54.824Z,13.00
2018-12-29T16:50:00.151Z,16.00
2018-12-29T16:51:02.704Z,20.00
2018-12-29T16:52:05.744Z,18.50
2018-12-29T16:53:08.696Z,17.00
2018-12-29T16:54:11.705Z,18.00
2018-12-29T16:55:15.073Z,15.00
2018-12-29T16:56:18.456Z,19.00
2018-12-29T16:57:21.605Z,13.50
2018-12-29T16:58:27.261Z,14.00
2018-12-29T16:59:34.692Z,12.00
2018-12-29T17:00:36.777Z,14.00
2018-12-29T17:01:41.296Z,15.00
2018-12-29T17:02:45.217Z,16.00
2018-12-29T17:03:52.704Z,15.50
2018-12-29T17:04:57.164Z,14.00
2018-12-29T17:06:00.245Z,14.00
2018-12-29T17:07:03.232Z,15.00
2018-12-29T17:08:06.344Z,16.50
2018-12-29T17:09:10.173Z,14.00
2018-12-29T17:10:15.103Z,12.00
2018-12-29T17:11:17.708Z,14.00
2018-12-29T17:12:23.242Z,13.00
2018-12-29T17:13:26.267Z,12.00
2018-12-29T17:14:29.239Z,15.50
2018-12-29T17:15:34.565Z,15.50
2018-12-29T17:16:38.402Z,13.00
2018-12-29T17:17:46.072Z,13.00
2018-12-29T17:18:49.110Z,12.00
2018-12-29T17:19:52.204Z,14.00
2018-12-29T17:20:55.214Z,15.00
2018-12-29T17:22:02.031Z,11.00
2018-12-29T17:23:06.932Z,13.50
2018-12-29T17:24:11.196Z,10.50
2018-12-29T17:25:14.182Z,11.50
2018-12-29T17:26:17.315Z,12.00
2018-12-29T17:27:20.320Z,14.00
2018-12-29T17:28:25.084Z,13.00
2018-12-29T17:29:28.084Z,10.50
2018-12-29T17:43:08.569Z,10.25
2018-12-29T17:44:11.583Z,15.50
2018-12-29T17:45:15.197Z,9.00
2018-12-29T17:46:18.237Z,13.00
2018-12-29T17:47:25.585Z,11.50
2018-12-29T17:48:30.725Z,15.00
2018-12-29T17:49:33.695Z,15.75
2018-12-29T17:50:38.156Z,13.25
2018-12-29T17:51:41.206Z,17.75
2018-12-29T17:52:44.500Z,10.75
2018-12-29T17:53:50.115Z,13.75
2018-12-29T17:54:53.626Z,14.50
2018-12-29T17:55:56.595Z,12.00
2018-12-29T17:57:03.713Z,11.75
2018-12-29T17:58:06.728Z,15.00
2018-12-29T17:59:09.710Z,12.50
2018-12-29T18:00:12.768Z,13.75
2018-12-29T18:01:16.372Z,12.50
2018-12-29T18:02:26.654Z,13.75
2018-12-29T18:03:30.959Z,13.00
2018-12-29T18:04:34.221Z,11.50
2018-12-29T18:05:37.597Z,9.00
2018-12-29T18:06:40.616Z,12.50
2018-12-29T18:07:43.970Z,12.00
2018-12-29T18:08:51.132Z,13.00
2018-12-29T18:09:58.216Z,15.50
2018-12-29T18:10:58.727Z,9.50
2018-12-29T18:12:09.469Z,14.00
2018-12-29T18:13:12.835Z,10.50
2018-12-29T18:14:25.003Z,12.00
2018-12-29T18:15:24.168Z,12.00
2018-12-29T18:16:32.199Z,12.00
2018-12-29T18:17:35.158Z,12.50
2018-12-29T18:18:39.773Z,12.50
2018-12-29T18:19:47.979Z,12.50
2018-12-29T18:20:51.912Z,13.50
2018-12-29T18:21:54.907Z,15.00
2018-12-29T18:22:58.033Z,12.00
2018-12-29T18:24:03.746Z,11.00
2018-12-29T18:25:06.794Z,13.00
2018-12-29T18:26:10.184Z,14.50
2018-12-29T18:27:15.445Z,13.50
2018-12-29T18:28:18.372Z,14.50
2018-12-29T18:29:23.175Z,14.00
2018-12-29T18:31:29.842Z,19.75
2018-12-29T18:32:33.767Z,17.50
2018-12-29T18:33:37.561Z,13.50
2018-12-29T18:34:42.959Z,18.00
2018-12-29T18:35:45.952Z,13.00
2018-12-29T18:36:50.735Z,16.50
2018-12-29T18:37:53.785Z,15.50
2018-12-29T18:38:57.045Z,14.00
2018-12-29T18:40:03.145Z,14.00
2018-12-29T18:41:08.169Z,17.00
2018-12-29T18:42:15.770Z,15.50
2018-12-29T18:43:18.797Z,16.50
2018-12-29T18:44:23.929Z,14.00
2018-12-29T18:45:27.579Z,13.50
2018-12-29T18:46:30.685Z,13.00
2018-12-29T18:47:36.425Z,13.00
2018-12-29T18:48:39.421Z,15.50
2018-12-29T18:49:42.431Z,12.50
2018-12-29T18:50:49.047Z,15.50
2018-12-29T18:51:55.086Z,10.00
2018-12-29T18:53:02.163Z,14.50
2018-12-29T18:54:02.478Z,14.00
2018-12-29T18:55:05.793Z,17.50
2018-12-29T18:56:11.217Z,14.00
2018-12-29T18:57:14.152Z,16.50
2018-12-29T18:58:25.752Z,13.50
2018-12-29T18:59:28.712Z,17.00
2018-12-29T19:00:32.028Z,17.50
2018-12-29T19:01:38.080Z,16.00
2018-12-29T19:02:43.353Z,12.50
2018-12-29T19:03:46.309Z,17.00
2018-12-29T19:04:49.657Z,15.50
2018-12-29T19:05:52.965Z,16.50
2018-12-29T19:06:59.095Z,11.50
2018-12-29T19:08:02.088Z,12.50
2018-12-29T19:09:07.071Z,15.00
2018-12-29T19:10:10.000Z,11.00
2018-12-29T19:11:13.507Z,13.00
2018-12-29T19:12:16.447Z,17.50
2018-12-29T19:13:19.550Z,10.50
2018-12-29T19:14:24.365Z,12.50
2018-12-29T19:15:30.066Z,14.50
2018-12-29T19:16:37.130Z,13.50
2018-12-29T19:17:40.131Z,10.00
2018-12-29T19:18:45.892Z,14.50
2018-12-29T19:19:52.549Z,14.50
2018-12-29T19:20:55.595Z,13.50
2018-12-29T19:21:59.064Z,9.00
2018-12-29T19:23:02.267Z,17.50
2018-12-29T19:24:05.354Z,14.50
2018-12-29T19:25:08.688Z,10.50
2018-12-29T19:26:11.714Z,12.00
2018-12-29T19:27:19.084Z,13.50
2018-12-29T19:28:24.046Z,12.00
2018-12-29T19:29:27.121Z,13.50
2018-12-29T19:30:36.447Z,11.00
2018-12-29T19:31:44.436Z,12.00
2018-12-29T19:32:45.186Z,10.00
2018-12-29T19:33:48.219Z,14.00
2018-12-29T19:34:51.661Z,14.00
2018-12-29T19:35:54.695Z,14.00
2018-12-29T19:37:00.355Z,11.50
2018-12-29T19:38:06.135Z,12.00
2018-12-29T19:39:13.054Z,15.00
2018-12-29T19:40:17.690Z,10.00
2018-12-29T19:41:22.268Z,12.00
2018-12-29T19:42:25.645Z,10.50
2018-12-29T19:43:28.636Z,11.50
2018-12-29T19:44:33.287Z,14.50
2018-12-29T19:45:36.703Z,14.00
2018-12-29T19:46:42.168Z,11.00
2018-12-29T19:47:48.033Z,11.50
2018-12-29T19:48:52.465Z,13.50
2018-12-29T19:49:55.480Z,10.50
2018-12-29T19:51:01.705Z,12.00
2018-12-29T19:52:04.980Z,12.00
2018-12-29T19:53:09.367Z,11.50
2018-12-29T19:54:12.978Z,14.00
2018-12-29T19:55:17.478Z,14.00
2018-12-29T19:56:20.454Z,10.00
2018-12-29T19:57:23.398Z,9.00
2018-12-29T19:58:30.201Z,12.50
2018-12-29T19:59:35.876Z,10.00
2018-12-29T20:00:43.534Z,12.50
2018-12-29T20:01:46.927Z,12.50
2018-12-29T20:02:50.484Z,11.00
2018-12-29T20:03:56.639Z,14.00
2018-12-29T20:05:04.135Z,10.50
2018-12-29T20:06:11.242Z,13.00
2018-12-29T20:07:12.247Z,12.00
2018-12-29T20:08:22.164Z,11.50
2018-12-29T20:09:30.480Z,10.00
2018-12-29T20:10:33.641Z,16.00
2018-12-29T20:11:36.643Z,10.00
2018-12-29T20:12:43.045Z,14.50
2018-12-29T20:13:48.258Z,10.50
2018-12-29T20:14:51.210Z,12.50
2018-12-29T20:15:54.839Z,12.50
2018-12-29T20:16:57.790Z,16.50
2018-12-29T20:18:02.909Z,13.50
2018-12-29T20:19:05.923Z,16.00
2018-12-29T20:20:09.150Z,12.50
2018-12-29T20:21:15.472Z,17.50
2018-12-29T20:22:22.371Z,14.00
2018-12-29T20:23:26.643Z,19.00
2018-12-29T20:24:33.297Z,13.75
2018-12-29T20:25:39.337Z,15.00
2018-12-29T20:26:45.247Z,13.75
2018-12-29T20:27:48.178Z,16.00
2018-12-29T20:28:51.196Z,14.00
2018-12-29T20:29:56.910Z,12.25
2018-12-29T20:31:00.195Z,15.75
2018-12-29T20:32:05.183Z,13.75
2018-12-29T20:33:19.680Z,19.25
2018-12-29T20:34:22.653Z,18.00
2018-12-29T20:35:30.047Z,15.75
2018-12-29T20:36:32.482Z,17.25
2018-12-29T20:37:40.788Z,14.25
2018-12-29T20:38:51.154Z,12.25
2018-12-29T20:39:54.448Z,15.75
2018-12-29T20:40:58.441Z,23.75
2018-12-29T20:42:01.934Z,17.25
2018-12-29T20:43:08.973Z,17.75
2018-12-29T20:44:15.588Z,19.75
2018-12-29T20:45:21.825Z,17.25
2018-12-29T20:46:27.854Z,19.75
2018-12-29T20:47:55.308Z,20.75
2018-12-29T20:49:01.143Z,17.50
2018-12-29T20:50:18.956Z,19.25
2018-12-29T20:51:21.879Z,21.50
2018-12-29T20:52:25.209Z,19.25
2018-12-29T20:53:37.395Z,19.50
2018-12-29T20:54:46.464Z,19.25
2018-12-29T20:55:49.736Z,16.75
2018-12-29T20:56:53.151Z,21.25